sensor_id;sensor_type;location;lat;lon;timestamp;P1;durP1;ratioP1;P2;durP2;ratioP2
35969;SDS011;22448;51.298;6.430;2022-08-01T00:00:06;13.10;;;7.68;;
35969;SDS011;22448;51.298;6.430;2022-08-01T00:02:36;16.75;;;8.48;;
35969;SDS011;22448;51.298;6.430;2022-08-01T00:05:05;12.18;;;7.90;;
35969;SDS011;22448;51.298;6.430;2022-08-01T00:07:35;12.48;;;7.53;;
35969;SDS011;22448;51.298;6.430;2022-08-01T00:10:08;11.98;;;7.45;;
35969;SDS011;22448;51.298;6.430;2022-08-01T00:12:38;16.52;;;7.68;;
35969;SDS011;22448;51.298;6.430;2022-08-01T00:15:06;11.27;;;7.38;;
35969;SDS011;22448;51.298;6.430;2022-08-01T00:17:34;12.02;;;7.28;;
35969;SDS011;22448;51.298;6.430;2022-08-01T00:20:01;11.80;;;7.60;;
35969;SDS011;22448;51.298;6.430;2022-08-01T00:22:30;14.13;;;7.72;;
35969;SDS011;22448;51.298;6.430;2022-08-01T00:24:58;10.25;;;6.60;;
35969;SDS011;22448;51.298;6.430;2022-08-01T00:27:25;15.35;;;7.22;;
35969;SDS011;22448;51.298;6.430;2022-08-01T00:29:52;11.93;;;7.60;;
35969;SDS011;22448;51.298;6.430;2022-08-01T00:32:39;12.48;;;7.40;;
35969;SDS011;22448;51.298;6.430;2022-08-01T00:35:07;15.13;;;7.45;;
35969;SDS011;22448;51.298;6.430;2022-08-01T00:37:34;8.48;;;7.28;;
35969;SDS011;22448;51.298;6.430;2022-08-01T00:40:02;12.88;;;7.45;;
35969;SDS011;22448;51.298;6.430;2022-08-01T00:42:29;11.63;;;7.18;;
35969;SDS011;22448;51.298;6.430;2022-08-01T00:44:56;11.45;;;6.72;;
35969;SDS011;22448;51.298;6.430;2022-08-01T00:47:23;9.68;;;6.65;;
35969;SDS011;22448;51.298;6.430;2022-08-01T00:49:50;14.43;;;7.43;;
35969;SDS011;22448;51.298;6.430;2022-08-01T00:52:17;11.48;;;7.45;;
35969;SDS011;22448;51.298;6.430;2022-08-01T00:54:45;14.90;;;7.35;;
35969;SDS011;22448;51.298;6.430;2022-08-01T00:57:12;10.55;;;7.30;;
35969;SDS011;22448;51.298;6.430;2022-08-01T00:59:40;9.85;;;6.95;;
35969;SDS011;22448;51.298;6.430;2022-08-01T01:02:07;12.82;;;7.30;;
35969;SDS011;22448;51.298;6.430;2022-08-01T01:04:41;16.23;;;7.80;;
35969;SDS011;22448;51.298;6.430;2022-08-01T01:07:22;14.27;;;8.00;;
35969;SDS011;22448;51.298;6.430;2022-08-01T01:10:28;14.18;;;8.18;;
35969;SDS011;22448;51.298;6.430;2022-08-01T01:13:11;15.63;;;7.38;;
35969;SDS011;22448;51.298;6.430;2022-08-01T01:15:46;18.52;;;7.85;;
35969;SDS011;22448;51.298;6.430;2022-08-01T01:18:20;15.80;;;7.78;;
35969;SDS011;22448;51.298;6.430;2022-08-01T01:21:04;14.75;;;7.35;;
35969;SDS011;22448;51.298;6.430;2022-08-01T01:23:58;12.80;;;7.40;;
35969;SDS011;22448;51.298;6.430;2022-08-01T01:35:06;21.13;;;10.20;;
35969;SDS011;22448;51.298;6.430;2022-08-01T01:37:37;19.10;;;10.07;;
35969;SDS011;22448;51.298;6.430;2022-08-01T01:40:06;24.80;;;11.38;;
35969;SDS011;22448;51.298;6.430;2022-08-01T01:42:36;17.48;;;10.85;;
35969;SDS011;22448;51.298;6.430;2022-08-01T01:45:03;23.23;;;12.35;;
35969;SDS011;22448;51.298;6.430;2022-08-01T01:47:32;28.92;;;12.25;;
35969;SDS011;22448;51.298;6.430;2022-08-01T01:50:00;21.85;;;12.00;;
35969;SDS011;22448;51.298;6.430;2022-08-01T01:52:28;21.70;;;11.93;;
35969;SDS011;22448;51.298;6.430;2022-08-01T01:54:58;18.88;;;11.35;;
35969;SDS011;22448;51.298;6.430;2022-08-01T01:57:27;23.52;;;13.30;;
35969;SDS011;22448;51.298;6.430;2022-08-01T01:59:56;15.70;;;12.02;;
35969;SDS011;22448;51.298;6.430;2022-08-01T02:02:24;19.10;;;12.65;;
35969;SDS011;22448;51.298;6.430;2022-08-01T02:04:52;19.05;;;13.02;;
35969;SDS011;22448;51.298;6.430;2022-08-01T02:07:21;19.80;;;13.43;;
35969;SDS011;22448;51.298;6.430;2022-08-01T02:09:50;21.88;;;13.30;;
35969;SDS011;22448;51.298;6.430;2022-08-01T02:12:19;24.75;;;13.73;;
35969;SDS011;22448;51.298;6.430;2022-08-01T02:14:48;20.38;;;13.45;;
35969;SDS011;22448;51.298;6.430;2022-08-01T02:17:18;25.23;;;14.13;;
35969;SDS011;22448;51.298;6.430;2022-08-01T02:19:47;23.33;;;13.68;;
35969;SDS011;22448;51.298;6.430;2022-08-01T02:22:33;23.67;;;13.88;;
35969;SDS011;22448;51.298;6.430;2022-08-01T02:25:31;23.77;;;13.75;;
35969;SDS011;22448;51.298;6.430;2022-08-01T02:28:32;22.52;;;13.98;;
35969;SDS011;22448;51.298;6.430;2022-08-01T02:31:03;30.10;;;16.02;;
35969;SDS011;22448;51.298;6.430;2022-08-01T02:33:40;24.73;;;14.57;;
35969;SDS011;22448;51.298;6.430;2022-08-01T02:36:11;25.70;;;13.02;;
35969;SDS011;22448;51.298;6.430;2022-08-01T02:38:58;22.90;;;14.20;;
35969;SDS011;22448;51.298;6.430;2022-08-01T02:41:27;24.70;;;14.93;;
35969;SDS011;22448;51.298;6.430;2022-08-01T02:43:58;24.83;;;14.65;;
35969;SDS011;22448;51.298;6.430;2022-08-01T02:46:29;25.70;;;14.23;;
35969;SDS011;22448;51.298;6.430;2022-08-01T02:49:16;25.88;;;14.27;;
35969;SDS011;22448;51.298;6.430;2022-08-01T02:51:47;23.15;;;14.70;;
35969;SDS011;22448;51.298;6.430;2022-08-01T02:54:15;30.42;;;14.40;;
35969;SDS011;22448;51.298;6.430;2022-08-01T02:56:43;23.63;;;14.95;;
35969;SDS011;22448;51.298;6.430;2022-08-01T02:59:15;24.55;;;14.80;;
35969;SDS011;22448;51.298;6.430;2022-08-01T03:01:48;20.80;;;14.23;;
35969;SDS011;22448;51.298;6.430;2022-08-01T03:04:16;29.20;;;16.00;;
35969;SDS011;22448;51.298;6.430;2022-08-01T03:06:45;24.33;;;15.30;;
35969;SDS011;22448;51.298;6.430;2022-08-01T03:09:14;32.72;;;17.48;;
35969;SDS011;22448;51.298;6.430;2022-08-01T03:11:43;30.13;;;16.77;;
35969;SDS011;22448;51.298;6.430;2022-08-01T03:14:12;30.95;;;18.10;;
35969;SDS011;22448;51.298;6.430;2022-08-01T03:16:41;35.17;;;18.65;;
35969;SDS011;22448;51.298;6.430;2022-08-01T03:19:11;34.13;;;19.13;;
35969;SDS011;22448;51.298;6.430;2022-08-01T03:21:40;32.03;;;19.17;;
35969;SDS011;22448;51.298;6.430;2022-08-01T03:24:09;39.10;;;19.63;;
35969;SDS011;22448;51.298;6.430;2022-08-01T03:26:38;31.20;;;18.85;;
35969;SDS011;22448;51.298;6.430;2022-08-01T03:29:06;28.98;;;20.00;;
35969;SDS011;22448;51.298;6.430;2022-08-01T03:31:37;35.92;;;21.75;;
35969;SDS011;22448;51.298;6.430;2022-08-01T03:34:09;33.40;;;20.90;;
35969;SDS011;22448;51.298;6.430;2022-08-01T03:36:38;38.35;;;21.60;;
35969;SDS011;22448;51.298;6.430;2022-08-01T03:39:16;32.50;;;20.38;;
35969;SDS011;22448;51.298;6.430;2022-08-01T03:41:51;37.13;;;21.45;;
35969;SDS011;22448;51.298;6.430;2022-08-01T03:44:23;42.42;;;22.00;;
35969;SDS011;22448;51.298;6.430;2022-08-01T03:46:58;38.50;;;23.10;;
35969;SDS011;22448;51.298;6.430;2022-08-01T03:49:29;44.65;;;24.63;;
35969;SDS011;22448;51.298;6.430;2022-08-01T03:51:58;41.15;;;23.80;;
35969;SDS011;22448;51.298;6.430;2022-08-01T03:57:00;46.20;;;23.98;;
35969;SDS011;22448;51.298;6.430;2022-08-01T03:59:28;38.13;;;23.60;;
35969;SDS011;22448;51.298;6.430;2022-08-01T04:01:57;42.40;;;24.73;;
35969;SDS011;22448;51.298;6.430;2022-08-01T04:04:25;48.15;;;24.02;;
35969;SDS011;22448;51.298;6.430;2022-08-01T04:06:52;45.80;;;24.48;;
35969;SDS011;22448;51.298;6.430;2022-08-01T04:09:20;46.20;;;26.15;;
35969;SDS011;22448;51.298;6.430;2022-08-01T04:11:48;45.60;;;28.08;;
35969;SDS011;22448;51.298;6.430;2022-08-01T04:14:15;42.03;;;25.08;;
35969;SDS011;22448;51.298;6.430;2022-08-01T04:16:42;34.83;;;25.45;;
35969;SDS011;22448;51.298;6.430;2022-08-01T04:19:10;49.38;;;26.65;;
35969;SDS011;22448;51.298;6.430;2022-08-01T04:21:37;39.60;;;25.60;;
35969;SDS011;22448;51.298;6.430;2022-08-01T04:24:07;39.80;;;26.17;;
35969;SDS011;22448;51.298;6.430;2022-08-01T04:26:44;44.25;;;24.70;;
35969;SDS011;22448;51.298;6.430;2022-08-01T04:29:14;39.30;;;25.55;;
35969;SDS011;22448;51.298;6.430;2022-08-01T04:31:43;45.70;;;23.95;;
35969;SDS011;22448;51.298;6.430;2022-08-01T04:34:13;39.47;;;25.98;;
35969;SDS011;22448;51.298;6.430;2022-08-01T04:36:43;43.25;;;25.45;;
35969;SDS011;22448;51.298;6.430;2022-08-01T04:39:12;38.53;;;24.52;;
35969;SDS011;22448;51.298;6.430;2022-08-01T04:41:41;38.85;;;24.48;;
35969;SDS011;22448;51.298;6.430;2022-08-01T04:44:08;38.40;;;24.33;;
35969;SDS011;22448;51.298;6.430;2022-08-01T04:46:35;37.55;;;24.05;;
35969;SDS011;22448;51.298;6.430;2022-08-01T04:49:05;33.80;;;23.13;;
35969;SDS011;22448;51.298;6.430;2022-08-01T04:51:49;42.17;;;23.27;;
35969;SDS011;22448;51.298;6.430;2022-08-01T04:54:17;44.75;;;24.83;;
35969;SDS011;22448;51.298;6.430;2022-08-01T04:56:44;40.50;;;23.45;;
35969;SDS011;22448;51.298;6.430;2022-08-01T04:59:17;41.42;;;23.85;;
35969;SDS011;22448;51.298;6.430;2022-08-01T05:02:02;37.45;;;24.35;;
35969;SDS011;22448;51.298;6.430;2022-08-01T05:04:30;35.38;;;23.30;;
35969;SDS011;22448;51.298;6.430;2022-08-01T05:06:56;34.58;;;24.60;;
35969;SDS011;22448;51.298;6.430;2022-08-01T05:09:23;38.80;;;23.83;;
35969;SDS011;22448;51.298;6.430;2022-08-01T05:11:57;34.42;;;22.02;;
35969;SDS011;22448;51.298;6.430;2022-08-01T05:14:25;36.03;;;22.42;;
35969;SDS011;22448;51.298;6.430;2022-08-01T05:16:52;39.20;;;22.63;;
35969;SDS011;22448;51.298;6.430;2022-08-01T05:19:19;43.22;;;24.30;;
35969;SDS011;22448;51.298;6.430;2022-08-01T05:21:47;34.63;;;22.67;;
35969;SDS011;22448;51.298;6.430;2022-08-01T05:24:14;42.92;;;24.45;;
35969;SDS011;22448;51.298;6.430;2022-08-01T05:26:42;33.75;;;22.23;;
35969;SDS011;22448;51.298;6.430;2022-08-01T05:29:09;36.40;;;23.08;;
35969;SDS011;22448;51.298;6.430;2022-08-01T05:31:36;37.40;;;23.80;;
35969;SDS011;22448;51.298;6.430;2022-08-01T05:34:03;37.55;;;23.13;;
35969;SDS011;22448;51.298;6.430;2022-08-01T05:36:30;41.05;;;22.35;;
35969;SDS011;22448;51.298;6.430;2022-08-01T05:38:58;33.88;;;21.73;;
35969;SDS011;22448;51.298;6.430;2022-08-01T05:41:25;35.33;;;22.30;;
35969;SDS011;22448;51.298;6.430;2022-08-01T05:43:52;38.05;;;21.20;;
35969;SDS011;22448;51.298;6.430;2022-08-01T05:46:19;32.30;;;21.00;;
35969;SDS011;22448;51.298;6.430;2022-08-01T05:48:49;35.67;;;20.73;;
35969;SDS011;22448;51.298;6.430;2022-08-01T05:51:16;33.95;;;21.23;;
35969;SDS011;22448;51.298;6.430;2022-08-01T05:53:43;35.63;;;20.88;;
35969;SDS011;22448;51.298;6.430;2022-08-01T05:56:10;29.58;;;19.05;;
35969;SDS011;22448;51.298;6.430;2022-08-01T05:58:37;31.67;;;20.20;;
35969;SDS011;22448;51.298;6.430;2022-08-01T06:01:04;28.10;;;19.02;;
35969;SDS011;22448;51.298;6.430;2022-08-01T06:03:31;31.00;;;19.50;;
35969;SDS011;22448;51.298;6.430;2022-08-01T06:05:59;31.42;;;17.55;;
35969;SDS011;22448;51.298;6.430;2022-08-01T06:08:27;22.92;;;16.48;;
35969;SDS011;22448;51.298;6.430;2022-08-01T06:10:54;25.35;;;17.15;;
35969;SDS011;22448;51.298;6.430;2022-08-01T06:13:22;32.88;;;17.00;;
35969;SDS011;22448;51.298;6.430;2022-08-01T06:15:49;27.85;;;17.38;;
35969;SDS011;22448;51.298;6.430;2022-08-01T06:18:17;27.05;;;16.90;;
35969;SDS011;22448;51.298;6.430;2022-08-01T06:20:44;29.38;;;18.25;;
35969;SDS011;22448;51.298;6.430;2022-08-01T06:23:11;26.90;;;17.52;;
35969;SDS011;22448;51.298;6.430;2022-08-01T06:25:58;29.35;;;18.83;;
35969;SDS011;22448;51.298;6.430;2022-08-01T06:28:25;30.20;;;18.20;;
35969;SDS011;22448;51.298;6.430;2022-08-01T06:30:52;29.65;;;17.83;;
35969;SDS011;22448;51.298;6.430;2022-08-01T06:33:19;26.45;;;15.57;;
35969;SDS011;22448;51.298;6.430;2022-08-01T06:35:47;24.17;;;15.65;;
35969;SDS011;22448;51.298;6.430;2022-08-01T06:38:14;32.08;;;17.17;;
35969;SDS011;22448;51.298;6.430;2022-08-01T06:40:41;24.73;;;14.65;;
35969;SDS011;22448;51.298;6.430;2022-08-01T06:43:08;24.83;;;15.98;;
35969;SDS011;22448;51.298;6.430;2022-08-01T06:45:40;21.52;;;14.02;;
35969;SDS011;22448;51.298;6.430;2022-08-01T06:48:07;19.42;;;13.60;;
35969;SDS011;22448;51.298;6.430;2022-08-01T06:50:34;20.17;;;14.35;;
35969;SDS011;22448;51.298;6.430;2022-08-01T06:53:02;21.10;;;14.02;;
35969;SDS011;22448;51.298;6.430;2022-08-01T06:55:30;19.67;;;13.43;;
35969;SDS011;22448;51.298;6.430;2022-08-01T06:57:57;18.02;;;12.63;;
35969;SDS011;22448;51.298;6.430;2022-08-01T07:00:24;23.38;;;13.82;;
35969;SDS011;22448;51.298;6.430;2022-08-01T07:02:55;18.48;;;12.82;;
35969;SDS011;22448;51.298;6.430;2022-08-01T07:05:25;20.70;;;14.15;;
35969;SDS011;22448;51.298;6.430;2022-08-01T07:07:52;20.15;;;13.48;;
35969;SDS011;22448;51.298;6.430;2022-08-01T07:10:19;19.15;;;14.02;;
35969;SDS011;22448;51.298;6.430;2022-08-01T07:12:47;21.83;;;15.45;;
35969;SDS011;22448;51.298;6.430;2022-08-01T07:15:14;20.45;;;14.73;;
35969;SDS011;22448;51.298;6.430;2022-08-01T07:17:41;24.33;;;16.40;;
35969;SDS011;22448;51.298;6.430;2022-08-01T07:20:09;22.13;;;15.88;;
35969;SDS011;22448;51.298;6.430;2022-08-01T07:22:41;22.27;;;14.15;;
35969;SDS011;22448;51.298;6.430;2022-08-01T07:25:09;25.95;;;14.18;;
35969;SDS011;22448;51.298;6.430;2022-08-01T07:27:36;19.52;;;12.23;;
35969;SDS011;22448;51.298;6.430;2022-08-01T07:30:04;16.35;;;11.18;;
35969;SDS011;22448;51.298;6.430;2022-08-01T07:32:31;17.25;;;12.27;;
35969;SDS011;22448;51.298;6.430;2022-08-01T07:35:00;17.23;;;11.18;;
35969;SDS011;22448;51.298;6.430;2022-08-01T07:37:27;12.55;;;9.65;;
35969;SDS011;22448;51.298;6.430;2022-08-01T07:40:14;12.45;;;8.57;;
35969;SDS011;22448;51.298;6.430;2022-08-01T07:42:42;11.57;;;7.85;;
35969;SDS011;22448;51.298;6.430;2022-08-01T07:45:10;16.58;;;8.48;;
35969;SDS011;22448;51.298;6.430;2022-08-01T07:47:37;10.40;;;7.47;;
35969;SDS011;22448;51.298;6.430;2022-08-01T07:50:04;12.38;;;7.70;;
35969;SDS011;22448;51.298;6.430;2022-08-01T07:52:32;10.13;;;6.85;;
35969;SDS011;22448;51.298;6.430;2022-08-01T07:54:59;11.68;;;7.13;;
35969;SDS011;22448;51.298;6.430;2022-08-01T07:57:27;10.02;;;6.72;;
35969;SDS011;22448;51.298;6.430;2022-08-01T07:59:54;9.90;;;6.57;;
35969;SDS011;22448;51.298;6.430;2022-08-01T08:02:21;12.13;;;6.78;;
35969;SDS011;22448;51.298;6.430;2022-08-01T08:04:48;14.20;;;8.50;;
35969;SDS011;22448;51.298;6.430;2022-08-01T08:07:15;13.20;;;8.38;;
35969;SDS011;22448;51.298;6.430;2022-08-01T08:09:42;10.73;;;7.78;;
35969;SDS011;22448;51.298;6.430;2022-08-01T08:12:16;10.57;;;7.93;;
35969;SDS011;22448;51.298;6.430;2022-08-01T08:14:44;14.50;;;9.93;;
35969;SDS011;22448;51.298;6.430;2022-08-01T08:17:10;15.70;;;9.25;;
35969;SDS011;22448;51.298;6.430;2022-08-01T08:19:37;13.50;;;8.55;;
35969;SDS011;22448;51.298;6.430;2022-08-01T08:22:06;10.00;;;8.02;;
35969;SDS011;22448;51.298;6.430;2022-08-01T08:24:34;11.98;;;7.50;;
35969;SDS011;22448;51.298;6.430;2022-08-01T08:27:11;12.02;;;7.57;;
35969;SDS011;22448;51.298;6.430;2022-08-01T08:29:38;9.13;;;6.40;;
35969;SDS011;22448;51.298;6.430;2022-08-01T08:32:05;9.40;;;6.70;;
35969;SDS011;22448;51.298;6.430;2022-08-01T08:34:33;8.02;;;6.45;;
35969;SDS011;22448;51.298;6.430;2022-08-01T08:37:00;9.63;;;6.07;;
35969;SDS011;22448;51.298;6.430;2022-08-01T08:39:28;10.32;;;6.93;;
35969;SDS011;22448;51.298;6.430;2022-08-01T08:42:07;9.88;;;5.95;;
35969;SDS011;22448;51.298;6.430;2022-08-01T08:44:34;9.35;;;6.13;;
35969;SDS011;22448;51.298;6.430;2022-08-01T08:47:02;12.38;;;6.50;;
35969;SDS011;22448;51.298;6.430;2022-08-01T08:52:02;11.43;;;7.25;;
35969;SDS011;22448;51.298;6.430;2022-08-01T08:54:34;8.75;;;6.65;;
35969;SDS011;22448;51.298;6.430;2022-08-01T08:57:03;8.50;;;6.05;;
35969;SDS011;22448;51.298;6.430;2022-08-01T08:59:31;9.93;;;5.93;;
35969;SDS011;22448;51.298;6.430;2022-08-01T09:01:59;10.00;;;6.45;;
35969;SDS011;22448;51.298;6.430;2022-08-01T09:04:26;6.80;;;4.78;;
35969;SDS011;22448;51.298;6.430;2022-08-01T09:06:53;7.95;;;4.63;;
35969;SDS011;22448;51.298;6.430;2022-08-01T09:09:21;6.10;;;4.55;;
35969;SDS011;22448;51.298;6.430;2022-08-01T09:11:49;7.20;;;4.97;;
35969;SDS011;22448;51.298;6.430;2022-08-01T09:14:32;8.55;;;5.40;;
35969;SDS011;22448;51.298;6.430;2022-08-01T09:17:05;7.82;;;4.95;;
35969;SDS011;22448;51.298;6.430;2022-08-01T09:19:35;6.03;;;4.43;;
35969;SDS011;22448;51.298;6.430;2022-08-01T09:22:14;5.63;;;3.90;;
35969;SDS011;22448;51.298;6.430;2022-08-01T09:24:57;7.47;;;4.75;;
35969;SDS011;22448;51.298;6.430;2022-08-01T09:27:25;5.30;;;3.83;;
35969;SDS011;22448;51.298;6.430;2022-08-01T09:29:52;6.55;;;3.95;;
35969;SDS011;22448;51.298;6.430;2022-08-01T09:32:30;5.90;;;4.35;;
35969;SDS011;22448;51.298;6.430;2022-08-01T09:38:10;7.38;;;3.63;;
35969;SDS011;22448;51.298;6.430;2022-08-01T09:40:50;8.85;;;3.90;;
35969;SDS011;22448;51.298;6.430;2022-08-01T09:43:19;6.15;;;4.47;;
35969;SDS011;22448;51.298;6.430;2022-08-01T09:45:48;5.60;;;4.00;;
35969;SDS011;22448;51.298;6.430;2022-08-01T09:48:19;5.35;;;3.80;;
35969;SDS011;22448;51.298;6.430;2022-08-01T09:50:51;3.30;;;2.53;;
35969;SDS011;22448;51.298;6.430;2022-08-01T09:53:20;4.45;;;2.47;;
35969;SDS011;22448;51.298;6.430;2022-08-01T09:56:08;5.03;;;3.03;;
35969;SDS011;22448;51.298;6.430;2022-08-01T09:58:58;3.22;;;2.65;;
35969;SDS011;22448;51.298;6.430;2022-08-01T10:01:28;3.15;;;2.55;;
35969;SDS011;22448;51.298;6.430;2022-08-01T10:04:09;3.60;;;2.60;;
35969;SDS011;22448;51.298;6.430;2022-08-01T10:06:38;3.75;;;2.42;;
35969;SDS011;22448;51.298;6.430;2022-08-01T10:09:09;3.65;;;2.47;;
35969;SDS011;22448;51.298;6.430;2022-08-01T10:11:41;2.60;;;2.40;;
35969;SDS011;22448;51.298;6.430;2022-08-01T10:14:10;4.20;;;2.40;;
35969;SDS011;22448;51.298;6.430;2022-08-01T10:16:44;3.60;;;2.42;;
35969;SDS011;22448;51.298;6.430;2022-08-01T10:19:22;5.35;;;2.33;;
35969;SDS011;22448;51.298;6.430;2022-08-01T10:21:50;3.38;;;2.72;;
35969;SDS011;22448;51.298;6.430;2022-08-01T10:24:25;4.72;;;2.70;;
35969;SDS011;22448;51.298;6.430;2022-08-01T10:26:58;5.32;;;2.60;;
35969;SDS011;22448;51.298;6.430;2022-08-01T10:32:30;3.30;;;2.35;;
35969;SDS011;22448;51.298;6.430;2022-08-01T10:34:57;3.22;;;1.98;;
35969;SDS011;22448;51.298;6.430;2022-08-01T10:37:35;2.55;;;1.75;;
35969;SDS011;22448;51.298;6.430;2022-08-01T10:40:18;2.78;;;1.50;;
35969;SDS011;22448;51.298;6.430;2022-08-01T10:43:02;4.72;;;1.50;;
35969;SDS011;22448;51.298;6.430;2022-08-01T10:45:29;1.98;;;1.50;;
35969;SDS011;22448;51.298;6.430;2022-08-01T10:48:04;1.98;;;1.60;;
35969;SDS011;22448;51.298;6.430;2022-08-01T10:53:24;3.50;;;1.42;;
35969;SDS011;22448;51.298;6.430;2022-08-01T10:56:07;2.80;;;1.80;;
35969;SDS011;22448;51.298;6.430;2022-08-01T10:58:39;3.90;;;1.50;;
35969;SDS011;22448;51.298;6.430;2022-08-01T11:01:14;6.55;;;1.75;;
35969;SDS011;22448;51.298;6.430;2022-08-01T11:03:43;3.05;;;1.45;;
35969;SDS011;22448;51.298;6.430;2022-08-01T11:06:26;1.40;;;1.27;;
35969;SDS011;22448;51.298;6.430;2022-08-01T11:09:02;2.88;;;1.25;;
35969;SDS011;22448;51.298;6.430;2022-08-01T11:11:32;3.22;;;1.10;;
35969;SDS011;22448;51.298;6.430;2022-08-01T11:14:18;3.17;;;1.20;;
35969;SDS011;22448;51.298;6.430;2022-08-01T11:16:51;2.28;;;1.40;;
35969;SDS011;22448;51.298;6.430;2022-08-01T11:19:18;2.83;;;1.40;;
35969;SDS011;22448;51.298;6.430;2022-08-01T11:27:17;3.20;;;1.20;;
35969;SDS011;22448;51.298;6.430;2022-08-01T11:32:51;2.75;;;1.20;;
35969;SDS011;22448;51.298;6.430;2022-08-01T11:35:38;1.20;;;1.10;;
35969;SDS011;22448;51.298;6.430;2022-08-01T11:38:36;3.17;;;1.30;;
35969;SDS011;22448;51.298;6.430;2022-08-01T11:44:07;1.77;;;0.90;;
35969;SDS011;22448;51.298;6.430;2022-08-01T11:52:05;2.20;;;1.65;;
35969;SDS011;22448;51.298;6.430;2022-08-01T11:54:35;2.58;;;2.13;;
35969;SDS011;22448;51.298;6.430;2022-08-01T11:57:11;5.05;;;2.13;;
35969;SDS011;22448;51.298;6.430;2022-08-01T11:59:38;6.22;;;2.10;;
35969;SDS011;22448;51.298;6.430;2022-08-01T12:02:37;4.78;;;2.70;;
35969;SDS011;22448;51.298;6.430;2022-08-01T12:05:05;3.72;;;2.80;;
35969;SDS011;22448;51.298;6.430;2022-08-01T12:07:38;4.85;;;2.40;;
35969;SDS011;22448;51.298;6.430;2022-08-01T12:10:08;3.15;;;2.20;;
35969;SDS011;22448;51.298;6.430;2022-08-01T12:12:43;3.05;;;2.47;;
35969;SDS011;22448;51.298;6.430;2022-08-01T12:15:10;3.53;;;2.50;;
35969;SDS011;22448;51.298;6.430;2022-08-01T12:17:57;4.30;;;2.42;;
35969;SDS011;22448;51.298;6.430;2022-08-01T12:20:27;3.13;;;2.80;;
35969;SDS011;22448;51.298;6.430;2022-08-01T12:22:59;4.95;;;2.58;;
35969;SDS011;22448;51.298;6.430;2022-08-01T12:25:27;3.80;;;2.15;;
35969;SDS011;22448;51.298;6.430;2022-08-01T12:27:55;3.13;;;2.40;;
35969;SDS011;22448;51.298;6.430;2022-08-01T12:30:27;4.80;;;2.28;;
35969;SDS011;22448;51.298;6.430;2022-08-01T12:32:57;4.10;;;2.40;;
35969;SDS011;22448;51.298;6.430;2022-08-01T12:35:25;4.72;;;3.00;;
35969;SDS011;22448;51.298;6.430;2022-08-01T12:37:53;3.42;;;2.45;;
35969;SDS011;22448;51.298;6.430;2022-08-01T12:40:42;2.95;;;1.77;;
35969;SDS011;22448;51.298;6.430;2022-08-01T12:43:15;4.88;;;2.20;;
35969;SDS011;22448;51.298;6.430;2022-08-01T12:45:54;2.22;;;1.80;;
35969;SDS011;22448;51.298;6.430;2022-08-01T12:48:23;2.67;;;1.80;;
35969;SDS011;22448;51.298;6.430;2022-08-01T12:50:51;1.58;;;1.42;;
35969;SDS011;22448;51.298;6.430;2022-08-01T12:53:19;2.65;;;1.60;;
35969;SDS011;22448;51.298;6.430;2022-08-01T12:55:48;3.83;;;1.50;;
35969;SDS011;22448;51.298;6.430;2022-08-01T12:58:32;1.83;;;1.42;;
35969;SDS011;22448;51.298;6.430;2022-08-01T13:01:04;4.18;;;1.30;;
35969;SDS011;22448;51.298;6.430;2022-08-01T13:03:33;2.28;;;1.42;;
35969;SDS011;22448;51.298;6.430;2022-08-01T13:06:00;2.15;;;1.88;;
35969;SDS011;22448;51.298;6.430;2022-08-01T13:08:31;2.55;;;1.73;;
35969;SDS011;22448;51.298;6.430;2022-08-01T13:11:04;5.85;;;1.90;;
35969;SDS011;22448;51.298;6.430;2022-08-01T13:13:39;6.82;;;1.45;;
35969;SDS011;22448;51.298;6.430;2022-08-01T13:16:06;2.38;;;1.20;;
35969;SDS011;22448;51.298;6.430;2022-08-01T13:18:55;1.92;;;1.20;;
35969;SDS011;22448;51.298;6.430;2022-08-01T13:21:23;4.03;;;1.50;;
35969;SDS011;22448;51.298;6.430;2022-08-01T13:24:10;3.30;;;1.65;;
35969;SDS011;22448;51.298;6.430;2022-08-01T13:26:43;5.35;;;1.77;;
35969;SDS011;22448;51.298;6.430;2022-08-01T13:31:43;3.45;;;1.30;;
35969;SDS011;22448;51.298;6.430;2022-08-01T13:34:11;4.25;;;1.52;;
35969;SDS011;22448;51.298;6.430;2022-08-01T13:36:38;5.70;;;1.70;;
35969;SDS011;22448;51.298;6.430;2022-08-01T13:39:14;3.63;;;1.00;;
35969;SDS011;22448;51.298;6.430;2022-08-01T13:42:00;2.33;;;1.15;;
35969;SDS011;22448;51.298;6.430;2022-08-01T13:44:28;2.35;;;1.40;;
35969;SDS011;22448;51.298;6.430;2022-08-01T13:46:54;2.30;;;1.15;;
35969;SDS011;22448;51.298;6.430;2022-08-01T13:49:22;4.32;;;1.25;;
35969;SDS011;22448;51.298;6.430;2022-08-01T13:51:49;4.72;;;1.38;;
35969;SDS011;22448;51.298;6.430;2022-08-01T13:54:17;3.50;;;1.17;;
35969;SDS011;22448;51.298;6.430;2022-08-01T13:56:44;4.53;;;1.27;;
35969;SDS011;22448;51.298;6.430;2022-08-01T13:59:11;2.67;;;1.10;;
35969;SDS011;22448;51.298;6.430;2022-08-01T14:01:39;3.08;;;1.50;;
35969;SDS011;22448;51.298;6.430;2022-08-01T14:04:06;3.65;;;1.50;;
35969;SDS011;22448;51.298;6.430;2022-08-01T14:06:33;3.97;;;1.42;;
35969;SDS011;22448;51.298;6.430;2022-08-01T14:09:01;3.03;;;1.70;;
35969;SDS011;22448;51.298;6.430;2022-08-01T14:11:43;3.92;;;1.60;;
35969;SDS011;22448;51.298;6.430;2022-08-01T14:14:11;4.22;;;1.70;;
35969;SDS011;22448;51.298;6.430;2022-08-01T14:16:38;4.63;;;1.65;;
35969;SDS011;22448;51.298;6.430;2022-08-01T14:19:05;5.05;;;1.52;;
35969;SDS011;22448;51.298;6.430;2022-08-01T14:21:33;5.72;;;1.52;;
35969;SDS011;22448;51.298;6.430;2022-08-01T14:24:00;3.10;;;1.30;;
35969;SDS011;22448;51.298;6.430;2022-08-01T14:26:27;4.20;;;1.40;;
35969;SDS011;22448;51.298;6.430;2022-08-01T14:28:54;8.68;;;2.08;;
35969;SDS011;22448;51.298;6.430;2022-08-01T14:31:21;7.05;;;1.60;;
35969;SDS011;22448;51.298;6.430;2022-08-01T14:33:47;3.50;;;1.33;;
35969;SDS011;22448;51.298;6.430;2022-08-01T14:36:14;4.07;;;1.20;;
35969;SDS011;22448;51.298;6.430;2022-08-01T14:38:56;4.25;;;1.30;;
35969;SDS011;22448;51.298;6.430;2022-08-01T14:41:25;3.20;;;1.10;;
35969;SDS011;22448;51.298;6.430;2022-08-01T14:43:53;3.10;;;1.20;;
35969;SDS011;22448;51.298;6.430;2022-08-01T14:46:20;4.15;;;1.20;;
35969;SDS011;22448;51.298;6.430;2022-08-01T14:48:46;4.75;;;1.20;;
35969;SDS011;22448;51.298;6.430;2022-08-01T14:51:13;2.00;;;0.95;;
35969;SDS011;22448;51.298;6.430;2022-08-01T14:53:41;3.40;;;1.17;;
35969;SDS011;22448;51.298;6.430;2022-08-01T14:56:16;2.13;;;1.10;;
35969;SDS011;22448;51.298;6.430;2022-08-01T14:58:43;3.35;;;1.13;;
35969;SDS011;22448;51.298;6.430;2022-08-01T15:01:10;3.05;;;1.60;;
35969;SDS011;22448;51.298;6.430;2022-08-01T15:03:37;4.15;;;2.08;;
35969;SDS011;22448;51.298;6.430;2022-08-01T15:06:04;6.47;;;1.70;;
35969;SDS011;22448;51.298;6.430;2022-08-01T15:08:32;1.30;;;1.00;;
35969;SDS011;22448;51.298;6.430;2022-08-01T15:10:59;4.13;;;1.23;;
35969;SDS011;22448;51.298;6.430;2022-08-01T15:13:27;2.53;;;1.08;;
35969;SDS011;22448;51.298;6.430;2022-08-01T15:15:54;2.17;;;1.23;;
35969;SDS011;22448;51.298;6.430;2022-08-01T15:18:26;1.83;;;1.10;;
35969;SDS011;22448;51.298;6.430;2022-08-01T15:20:54;2.83;;;1.35;;
35969;SDS011;22448;51.298;6.430;2022-08-01T15:23:23;2.72;;;1.27;;
35969;SDS011;22448;51.298;6.430;2022-08-01T15:25:49;3.65;;;1.15;;
35969;SDS011;22448;51.298;6.430;2022-08-01T15:28:16;2.75;;;1.42;;
35969;SDS011;22448;51.298;6.430;2022-08-01T15:30:43;2.65;;;1.27;;
35969;SDS011;22448;51.298;6.430;2022-08-01T15:33:11;5.15;;;1.88;;
35969;SDS011;22448;51.298;6.430;2022-08-01T15:35:38;3.92;;;1.55;;
35969;SDS011;22448;51.298;6.430;2022-08-01T15:38:05;5.30;;;2.03;;